createdAt,value
2023-04-21T00:05:03.088Z,10.35
2023-04-21T00:10:08.739Z,10.89
2023-04-21T00:15:12.966Z,9.87
2023-04-21T00:20:18.487Z,10.47
2023-04-21T00:25:22.927Z,10.76
2023-04-21T00:30:27.338Z,11.71
2023-04-21T00:35:32.908Z,10.84
2023-04-21T00:40:38.288Z,11.26
2023-04-21T00:45:42.428Z,11.46
2023-04-21T00:50:47.903Z,11.92
2023-04-21T00:55:52.257Z,12.03
2023-04-21T01:00:56.833Z,12.31
2023-04-21T01:06:02.516Z,12.28
2023-04-21T01:11:12.245Z,12.04
2023-04-21T01:16:18.789Z,12.09
2023-04-21T01:21:24.897Z,11.68
2023-04-21T01:26:30.333Z,11.61
2023-04-21T01:31:34.541Z,10.90
2023-04-21T01:36:38.739Z,10.73
2023-04-21T01:41:44.224Z,10.22
2023-04-21T01:46:48.641Z,10.37
2023-04-21T01:51:52.712Z,10.39
2023-04-21T01:56:58.564Z,9.97
2023-04-21T02:02:03.222Z,9.67
2023-04-21T02:07:10.360Z,8.62
2023-04-21T02:12:15.960Z,8.87
2023-04-21T02:17:20.067Z,8.52
2023-04-21T02:22:24.421Z,8.40
2023-04-21T02:27:31.374Z,9.02
2023-04-21T02:32:37.019Z,8.87
2023-04-21T02:37:41.816Z,8.46
2023-04-21T02:42:55.746Z,8.02
2023-04-21T02:47:59.909Z,8.18
2023-04-21T02:53:04.082Z,8.78
2023-04-21T02:58:10.453Z,9.26
2023-04-21T03:03:16.683Z,9.37
2023-04-21T03:08:20.907Z,9.65
2023-04-21T03:13:26.357Z,9.66
2023-04-21T03:18:30.488Z,9.56
2023-04-21T03:23:34.638Z,8.73
2023-04-21T03:28:40.085Z,7.16
2023-04-21T03:33:44.126Z,7.98
2023-04-21T03:38:48.588Z,6.07
2023-04-21T03:43:55.005Z,5.61
2023-04-21T03:48:59.883Z,6.12
2023-04-21T03:54:05.779Z,7.06
2023-04-21T03:59:11.226Z,8.12
2023-04-21T04:04:16.612Z,9.08
2023-04-21T04:09:21.399Z,9.72
2023-04-21T04:14:27.108Z,9.73
2023-04-21T04:19:34.068Z,9.90
2023-04-21T04:24:38.343Z,9.96
2023-04-21T04:29:46.553Z,10.40
2023-04-21T04:34:52.988Z,10.84
2023-04-21T04:39:58.161Z,10.71
2023-04-21T04:45:03.763Z,10.61
2023-04-21T04:50:08.729Z,10.15
2023-04-21T04:55:12.977Z,9.15
2023-04-21T05:00:18.862Z,9.29
2023-04-21T05:05:24.883Z,9.27
2023-04-21T05:10:29.617Z,9.27
2023-04-21T05:15:35.095Z,9.20
2023-04-21T05:20:42.507Z,9.58
2023-04-21T05:25:46.584Z,9.81
2023-04-21T05:30:52.024Z,9.92
2023-04-21T05:35:56.017Z,10.14
2023-04-21T05:40:59.979Z,10.20
2023-04-21T05:46:10.577Z,10.76
2023-04-21T05:51:16.609Z,11.19
2023-04-21T05:56:21.343Z,12.42
2023-04-21T06:01:26.836Z,12.74
2023-04-21T06:06:30.878Z,13.94
2023-04-21T06:11:35.056Z,12.94
2023-04-21T06:16:40.560Z,12.53
2023-04-21T06:21:44.854Z,12.91
2023-04-21T06:26:48.963Z,13.58
2023-04-21T06:31:54.354Z,13.16
2023-04-21T06:36:58.732Z,13.70
2023-04-21T06:42:02.840Z,14.18
2023-04-21T06:47:08.413Z,14.12
2023-04-21T06:52:12.562Z,14.16
2023-04-21T06:57:17.397Z,15.18
2023-04-21T07:02:23.081Z,15.83
2023-04-21T07:07:26.986Z,14.45
2023-04-21T07:12:30.979Z,15.73
2023-04-21T07:17:36.542Z,14.14
2023-04-21T07:22:40.660Z,14.71
2023-04-21T07:27:44.779Z,15.30
2023-04-21T07:32:50.281Z,14.13
2023-04-21T07:37:54.474Z,15.18
2023-04-21T07:42:58.870Z,15.63
2023-04-21T07:48:06.273Z,15.44
2023-04-21T07:53:10.685Z,15.25
2023-04-21T07:58:14.799Z,16.34
2023-04-21T08:03:22.852Z,16.00
2023-04-21T08:08:30.203Z,16.75
2023-04-21T08:13:36.282Z,16.09
2023-04-21T08:18:41.766Z,16.78
2023-04-21T08:23:46.027Z,16.13
2023-04-21T08:28:50.153Z,16.47
2023-04-21T08:34:01.998Z,16.16
2023-04-21T08:39:07.299Z,16.44
2023-04-21T08:44:12.206Z,15.96
2023-04-21T08:49:21.095Z,16.52
2023-04-21T08:54:25.978Z,16.82
2023-04-21T08:59:30.842Z,16.35
2023-04-21T09:04:36.690Z,16.20
2023-04-21T09:09:56.176Z,16.82
2023-04-21T09:15:01.153Z,16.98
2023-04-21T09:20:18.713Z,16.67
2023-04-21T09:25:23.828Z,16.65
2023-04-21T09:30:28.548Z,17.22
2023-04-21T09:35:37.520Z,17.34
2023-04-21T09:40:41.959Z,16.67
2023-04-21T09:45:47.072Z,16.73
2023-04-21T09:56:03.826Z,16.72
2023-04-21T10:01:10.456Z,16.96
2023-04-21T10:06:16.310Z,16.63
2023-04-21T10:11:21.383Z,17.07
2023-04-21T10:16:26.724Z,16.32
2023-04-21T10:21:37.972Z,16.19
2023-04-21T10:26:41.869Z,16.92
2023-04-21T10:31:53.782Z,18.11
2023-04-21T10:37:19.799Z,17.17
2023-04-21T10:42:34.859Z,17.78
2023-04-21T10:47:45.465Z,18.33
2023-04-21T10:52:56.824Z,17.66
2023-04-21T10:58:03.989Z,17.68
2023-04-21T11:03:09.465Z,18.81
2023-04-21T11:08:15.150Z,18.67
2023-04-21T11:13:21.876Z,17.26
2023-04-21T11:18:43.385Z,17.35
2023-04-21T11:23:53.641Z,17.81
2023-04-21T11:28:57.729Z,17.88
2023-04-21T11:34:02.470Z,20.59
2023-04-21T11:39:10.128Z,21.46
2023-04-21T11:44:15.529Z,20.50
2023-04-21T11:49:19.860Z,23.60
2023-04-21T11:54:25.606Z,23.00
2023-04-21T11:59:29.738Z,22.11
2023-04-21T12:04:34.613Z,22.04
2023-04-21T12:09:39.908Z,21.59
2023-04-21T12:14:46.405Z,22.16
2023-04-21T12:19:50.744Z,23.24
2023-04-21T12:24:56.320Z,21.85
2023-04-21T12:30:00.541Z,22.75
2023-04-21T12:35:05.362Z,23.06
2023-04-21T12:40:11.791Z,22.91
2023-04-21T12:45:15.899Z,24.03
2023-04-21T12:50:19.893Z,22.21
2023-04-21T12:55:25.557Z,23.37
2023-04-21T13:00:29.674Z,23.50
2023-04-21T13:05:33.634Z,24.04
2023-04-21T13:10:38.927Z,22.21
2023-04-21T13:15:43.065Z,22.77
2023-04-21T13:20:47.094Z,22.74
2023-04-21T13:25:52.958Z,21.84
2023-04-21T13:30:57.469Z,21.37
2023-04-21T13:36:01.461Z,23.49
2023-04-21T13:41:07.086Z,24.06
2023-04-21T13:46:10.994Z,21.94
2023-04-21T13:51:15.037Z,21.13
2023-04-21T13:56:20.598Z,22.49
2023-04-21T14:01:24.612Z,23.05
2023-04-21T14:06:28.753Z,23.12
2023-04-21T14:11:34.191Z,24.28
2023-04-21T14:16:38.924Z,25.57
2023-04-21T14:21:43.187Z,24.20
2023-04-21T14:26:48.806Z,23.73
2023-04-21T14:31:53.976Z,23.44
2023-04-21T14:36:57.876Z,24.21
2023-04-21T14:42:03.236Z,24.57
2023-04-21T14:47:10.458Z,23.71
2023-04-21T14:52:14.996Z,22.84
2023-04-21T14:57:21.850Z,22.66
2023-04-21T15:02:26.612Z,21.10
2023-04-21T15:07:31.119Z,22.13
2023-04-21T15:12:36.864Z,22.27
2023-04-21T15:17:41.094Z,20.22
2023-04-21T15:22:45.214Z,20.61
2023-04-21T15:27:50.518Z,21.34
2023-04-21T15:32:54.258Z,21.68
2023-04-21T15:37:58.309Z,21.91
2023-04-21T15:43:03.730Z,21.79
2023-04-21T15:48:08.348Z,21.84
2023-04-21T15:53:12.316Z,21.46
2023-04-21T15:58:17.970Z,22.16
2023-04-21T16:03:22.615Z,21.84
2023-04-21T16:08:26.745Z,21.87
2023-04-21T16:13:32.204Z,21.11
2023-04-21T16:18:36.752Z,21.58
2023-04-21T16:23:41.097Z,20.89
2023-04-21T16:28:46.740Z,18.80
2023-04-21T16:33:52.738Z,18.24
2023-04-21T16:38:57.189Z,18.03
2023-04-21T16:44:02.969Z,17.25
2023-04-21T16:49:07.231Z,16.46
2023-04-21T16:54:11.582Z,16.22
2023-04-21T16:59:19.406Z,16.42
2023-04-21T17:04:23.665Z,16.21
2023-04-21T17:09:29.439Z,16.25
2023-04-21T17:14:35.262Z,15.63
2023-04-21T17:20:38.058Z,15.39
2023-04-21T17:25:42.717Z,15.13
2023-04-21T17:31:03.383Z,15.23
2023-04-21T17:36:19.851Z,14.64
2023-04-21T17:41:24.208Z,14.58
2023-04-21T17:46:30.616Z,14.15
2023-04-21T17:51:37.313Z,14.14
2023-04-21T17:56:41.807Z,14.06
2023-04-21T18:01:47.523Z,13.93
2023-04-21T18:06:52.389Z,13.93
2023-04-21T18:11:57.094Z,13.81
2023-04-21T18:17:03.288Z,13.53
2023-04-21T18:22:07.481Z,13.38
2023-04-21T18:27:11.545Z,13.16
2023-04-21T18:32:18.953Z,13.15
2023-04-21T18:37:23.142Z,13.14
2023-04-21T18:42:28.835Z,13.07
2023-04-21T18:47:35.768Z,12.89
2023-04-21T18:52:40.043Z,13.07
2023-04-21T18:57:44.348Z,12.82
2023-04-21T19:02:51.392Z,12.99
2023-04-21T19:07:55.638Z,12.77
2023-04-21T19:12:59.948Z,12.83
2023-04-21T19:18:05.965Z,12.51
2023-04-21T19:23:10.266Z,12.79
2023-04-21T19:28:14.307Z,12.49
2023-04-21T19:33:20.362Z,12.46
2023-04-21T19:38:24.645Z,12.87
2023-04-21T19:43:28.786Z,12.33
2023-04-21T19:48:34.350Z,12.73
2023-04-21T19:53:39.060Z,12.34
2023-04-21T19:58:43.590Z,12.06
2023-04-21T20:03:49.196Z,11.61
2023-04-21T20:08:53.755Z,11.14
2023-04-21T20:13:58.205Z,11.21
2023-04-21T20:19:04.564Z,11.70
2023-04-21T20:24:10.475Z,12.24
2023-04-21T20:29:14.603Z,11.85
2023-04-21T20:34:20.073Z,11.57
2023-04-21T20:39:25.244Z,11.40
2023-04-21T20:44:31.534Z,10.75
2023-04-21T20:49:37.525Z,9.29
2023-04-21T20:54:42.258Z,10.69
2023-04-21T20:59:46.630Z,10.81
2023-04-21T21:04:52.324Z,9.08
2023-04-21T21:09:57.285Z,9.83
2023-04-21T21:15:01.697Z,10.23
2023-04-21T21:20:08.946Z,8.16
2023-04-21T21:25:14.068Z,8.27
2023-04-21T21:30:18.294Z,8.93
2023-04-21T21:35:27.499Z,8.78
2023-04-21T21:40:42.578Z,9.40
2023-04-21T21:45:50.177Z,9.85
2023-04-21T21:50:56.182Z,8.43
2023-04-21T21:56:01.229Z,8.33
2023-04-21T22:01:05.736Z,7.72
2023-04-21T22:06:13.693Z,7.78
2023-04-21T22:11:20.389Z,8.87
2023-04-21T22:16:24.719Z,9.97
2023-04-21T22:21:31.970Z,9.48
2023-04-21T22:26:36.455Z,7.74
2023-04-21T22:31:40.774Z,7.50
2023-04-21T22:36:46.421Z,7.38
2023-04-21T22:41:53.257Z,7.86
2023-04-21T22:46:57.451Z,7.22
2023-04-21T22:52:02.902Z,6.51
2023-04-21T22:57:07.495Z,7.31
2023-04-21T23:02:12.122Z,7.88
2023-04-21T23:07:17.700Z,8.19
2023-04-21T23:12:21.804Z,8.05
2023-04-21T23:17:26.146Z,8.22
2023-04-21T23:22:31.872Z,8.10
2023-04-21T23:27:36.179Z,8.03
2023-04-21T23:32:41.358Z,6.47
2023-04-21T23:37:47.258Z,7.03
2023-04-21T23:42:51.409Z,7.84
2023-04-21T23:47:55.446Z,7.78
2023-04-21T23:53:01.170Z,7.53
2023-04-21T23:58:05.398Z,8.03
